Ammon, Idaho
Current Conditions -  °F | °C
As of 3:53 AM on Friday 28 Nov 2014 (Local Time) from KIDA Reporting Station
Clear Clear  
Wind Chill: 33°   Ceiling: Unl
Heat Index: 39°   Visibility: 10mi
Dew Point: 28°   Wind: 9mph
Humidity: 65%   Direction: 220°SW
Pressure: 29.96"   Gusts: NA
Location:  43.4284°N, 111.925°W
Report Text: KIDA 281053Z AUTO 22008KT 10SM CLR 04/M02 A2996 RMK AO2 SLP139 T00391022
Loading
Personal Weather Stations






























Interactive Weather Map New forecast layout! Learn more

10-Day Weather Forecast

Advertisements
Track Severe Weather on mobile